Карточка аэропорта USTR

Внимание!
Информация на этой странице в стадии наполнения.
Если вы не увидели какой-то информации, или заметили неточность - пожалуйста сообщите нам!
Спасибо!
Команда RU-STAFF
Название аэропортаРощино
Название аэропорта (англ.)Roshschino
Превышение378 ft. (115.2 m.)
Координаты57°10.098', 65°19.002'
Высота перехода3000ft
Эшелон переходаQNH⩾1013hPa:FL040; QNH⩾977hPa:FL050; QNH⩽977hPa:FL060
Коды ответчика5101-5137
Зона ОрВДТюмень РПИ (USTV)
Данные METARUSTR 211000Z 33004MPS 9999 -SHRA FEW011 OVC049CB 20/20 Q0997 R03/290050 R30/////99 TEMPO VRB15MPS 0500 +TSRAGR SQ VV004
Проноз погоды (TAF)USTR 210734Z 2109/2209 36005G12MPS 9999 BKN020CB TEMPO 2109/2118 VRB15MPS 1500 TSRAGR SQ VV004 FM211800 VRB01MPS 1500 BR BKN007 SCT020CB TEMPO 2118/2203 0200 -SHRA FG VV001 FM220300 23003G08MPS 6000 SCT007 BKN016CB
NOTAMshow/hide NOTAM
AWOS   TABLE

Информация о ВПП

ВПП Длина ВПП (м.) Покрытие Курс ВПП Частота ILS
122704Асфальтобетон121 
302704Асфальтобетон301 
033003Асфальтобетон34108.3
213003Асфальтобетон214110.7

Диспетчерские позиции

Позывной Наименование органа УВД Частота
USTR_R_APPТюмень-Круг126.100
USTR_GNDТюмень-Руление119.000
USTR_TWRТюмень-Старт118.200



Спутниковое изображение